Time;durP1;ratioP1;P1;durP2;ratioP2;P2;SDS_P1;SDS_P2;PMS_P1;PMS_P2;Temp;Humidity;BMP_temperature;BMP_pressure;BME280_temperature;BME280_humidity;BME280_pressure;Samples;Min_cycle;Max_cycle;Signal;HPM_P1;HPM_P2
2023/09/06 00:00:48;;;;;;;17.83;14.13;;;19.50;99.90;;;;;;5090356;28;20467;-76
2023/09/06 00:03:15;;;;;;;15.43;12.82;;;19.50;99.90;;;;;;5087032;28;20067;-77
2023/09/06 00:05:43;;;;;;;16.95;14.00;;;19.50;99.90;;;;;;5086995;28;20040;-77
2023/09/06 00:08:12;;;;;;;17.58;15.63;;;19.50;99.90;;;;;;5086663;28;20048;-78
2023/09/06 00:10:39;;;;;;;18.15;15.60;;;19.40;99.90;;;;;;5080522;28;20041;-78
2023/09/06 00:13:07;;;;;;;17.75;14.82;;;19.40;99.90;;;;;;5080837;28;20113;-78
2023/09/06 00:15:33;;;;;;;17.48;15.60;;;19.40;99.90;;;;;;5111099;27;20048;-77
2023/09/06 00:17:59;;;;;;;17.35;14.20;;;19.40;99.90;;;;;;5090609;28;20036;-77
2023/09/06 00:20:24;;;;;;;18.77;15.32;;;19.40;99.90;;;;;;5107025;28;20046;-77
2023/09/06 00:22:58;;;;;;;20.55;16.45;;;19.40;99.90;;;;;;5085354;28;20132;-77
2023/09/06 00:25:25;;;;;;;20.65;15.35;;;19.40;99.90;;;;;;5066760;28;20051;-77
2023/09/06 00:27:52;;;;;;;16.95;14.75;;;19.40;99.90;;;;;;5085592;28;20508;-77
2023/09/06 00:30:18;;;;;;;16.83;15.02;;;19.40;99.90;;;;;;5082890;28;20068;-77
2023/09/06 00:32:45;;;;;;;19.90;15.05;;;19.40;99.90;;;;;;5090372;28;20048;-77
2023/09/06 00:35:11;;;;;;;17.43;14.10;;;19.40;99.90;;;;;;5077529;28;20036;-77
2023/09/06 00:37:43;;;;;;;18.75;15.15;;;19.40;99.90;;;;;;5078859;28;20041;-77
2023/09/06 00:40:18;;;;;;;17.75;15.15;;;19.40;99.90;;;;;;5076605;28;20474;-77
2023/09/06 00:42:51;;;;;;;19.88;15.07;;;19.30;99.90;;;;;;5083786;28;20040;-77
2023/09/06 00:45:21;;;;;;;18.83;14.45;;;19.30;99.90;;;;;;5086320;28;20066;-76
2023/09/06 00:47:49;;;;;;;16.55;13.73;;;19.30;99.90;;;;;;5091539;28;20394;-78
2023/09/06 00:50:16;;;;;;;17.88;14.18;;;19.30;99.90;;;;;;5089043;28;20048;-78
2023/09/06 00:52:43;;;;;;;17.60;14.95;;;19.30;99.90;;;;;;5091249;28;20508;-76
2023/09/06 00:55:10;;;;;;;17.33;14.80;;;19.30;99.90;;;;;;5085763;28;20040;-78
2023/09/06 00:57:36;;;;;;;15.30;13.68;;;19.20;99.90;;;;;;5089576;28;20486;-77
2023/09/06 01:00:05;;;;;;;16.67;13.45;;;19.20;99.90;;;;;;5082894;28;20036;-77
2023/09/06 01:02:30;;;;;;;15.68;13.02;;;19.20;99.90;;;;;;5087926;28;20048;-77
2023/09/06 01:04:56;;;;;;;16.02;14.00;;;19.10;99.90;;;;;;5085392;28;20433;-76
2023/09/06 01:07:27;;;;;;;16.75;14.95;;;19.10;99.90;;;;;;5093963;28;20101;-75
2023/09/06 01:09:53;;;;;;;18.85;15.95;;;19.10;99.90;;;;;;5078442;28;20372;-77
2023/09/06 01:12:18;;;;;;;18.92;14.90;;;19.00;99.90;;;;;;5085211;28;20092;-77
2023/09/06 01:14:44;;;;;;;17.92;14.45;;;19.00;99.90;;;;;;5091687;28;20036;-77
2023/09/06 01:17:13;;;;;;;17.80;15.88;;;19.00;99.90;;;;;;5094540;28;20432;-77
2023/09/06 01:19:45;;;;;;;18.17;16.35;;;18.90;99.90;;;;;;5089193;28;20079;-77
2023/09/06 01:22:22;;;;;;;19.73;16.63;;;18.90;99.90;;;;;;5078370;28;20059;-77
2023/09/06 01:24:50;;;;;;;18.17;16.27;;;18.90;99.90;;;;;;5078380;28;20044;-78
2023/09/06 01:27:16;;;;;;;22.50;18.42;;;18.90;99.90;;;;;;5088654;28;20051;-77
2023/09/06 01:29:42;;;;;;;19.98;17.23;;;18.90;99.90;;;;;;5085300;28;20406;-77
2023/09/06 01:32:07;;;;;;;21.30;16.83;;;18.90;99.90;;;;;;5073122;28;20040;-77
2023/09/06 01:34:33;;;;;;;21.33;17.67;;;18.90;99.90;;;;;;5085184;28;20033;-77
2023/09/06 01:36:59;;;;;;;18.52;16.40;;;18.90;99.90;;;;;;5081617;28;20173;-77
2023/09/06 01:39:24;;;;;;;21.40;17.92;;;18.80;99.90;;;;;;5079925;28;20127;-77
2023/09/06 01:41:50;;;;;;;19.92;17.83;;;18.80;99.90;;;;;;5086760;28;20047;-76
2023/09/06 01:44:15;;;;;;;21.10;18.20;;;18.80;99.90;;;;;;5087931;28;20032;-77
2023/09/06 01:46:41;;;;;;;20.40;18.00;;;18.70;99.90;;;;;;5087328;28;20043;-77
2023/09/06 01:49:10;;;;;;;19.25;17.23;;;18.70;99.90;;;;;;5083875;28;20032;-77
2023/09/06 01:51:35;;;;;;;23.77;18.58;;;18.70;99.90;;;;;;5089018;28;20048;-77
2023/09/06 01:54:04;;;;;;;22.02;16.95;;;18.60;99.90;;;;;;5085485;28;20039;-77
2023/09/06 01:56:30;;;;;;;19.42;17.00;;;18.70;99.90;;;;;;5082422;28;20083;-76
2023/09/06 01:58:56;;;;;;;21.00;16.65;;;18.60;99.90;;;;;;5084185;28;20115;-76
2023/09/06 02:01:21;;;;;;;24.13;17.23;;;18.60;99.90;;;;;;5061039;28;20201;-77
2023/09/06 02:03:48;;;;;;;25.52;17.27;;;18.60;99.90;;;;;;5089304;28;20041;-77
2023/09/06 02:06:14;;;;;;;24.17;16.40;;;18.60;99.90;;;;;;5096937;28;20032;-76
2023/09/06 02:08:40;;;;;;;21.13;15.63;;;18.50;99.90;;;;;;5099002;28;20169;-76
2023/09/06 02:11:09;;;;;;;18.48;16.55;;;18.50;99.90;;;;;;5093821;28;20086;-78
2023/09/06 02:13:34;;;;;;;17.77;15.15;;;18.50;99.90;;;;;;5104903;28;20036;-77
2023/09/06 02:16:00;;;;;;;17.77;15.27;;;18.50;99.90;;;;;;5090671;28;20044;-77
2023/09/06 02:18:29;;;;;;;17.42;15.63;;;18.50;99.90;;;;;;5086771;28;20046;-78
2023/09/06 02:20:55;;;;;;;21.42;14.68;;;18.40;99.90;;;;;;5085236;28;20036;-77
2023/09/06 02:23:22;;;;;;;18.75;15.55;;;18.40;99.90;;;;;;5117734;28;20490;-76
2023/09/06 02:25:48;;;;;;;18.10;15.60;;;18.40;99.90;;;;;;5100909;28;20127;-77
2023/09/06 02:28:17;;;;;;;21.67;16.45;;;18.40;99.90;;;;;;5103516;28;20042;-78
2023/09/06 02:30:43;;;;;;;17.17;14.50;;;18.40;99.90;;;;;;5089002;28;20036;-77
2023/09/06 02:33:13;;;;;;;16.70;14.18;;;18.40;99.90;;;;;;5087366;28;20028;-76
2023/09/06 02:35:42;;;;;;;17.15;14.27;;;18.30;99.90;;;;;;5095461;28;20141;-76
2023/09/06 02:38:12;;;;;;;15.02;13.20;;;18.30;99.90;;;;;;5079805;28;20372;-77
2023/09/06 02:40:40;;;;;;;18.40;13.70;;;18.30;99.90;;;;;;5067171;28;20058;-77
2023/09/06 02:43:06;;;;;;;16.42;13.65;;;18.20;99.90;;;;;;5084690;28;20036;-77
2023/09/06 02:45:37;;;;;;;16.67;14.27;;;18.20;99.90;;;;;;5084663;28;20390;-76
2023/09/06 02:48:12;;;;;;;17.13;13.73;;;18.20;99.90;;;;;;5095933;28;20051;-78
2023/09/06 02:50:39;;;;;;;17.50;14.48;;;18.20;99.90;;;;;;5093735;28;20051;-77
2023/09/06 02:53:15;;;;;;;14.43;12.60;;;18.10;99.90;;;;;;5095564;28;20051;-77
2023/09/06 02:55:41;;;;;;;18.48;14.23;;;18.10;99.90;;;;;;5091645;28;20046;-77
2023/09/06 02:58:07;;;;;;;18.58;13.55;;;18.00;99.90;;;;;;5089160;28;20128;-77
2023/09/06 03:00:36;;;;;;;18.65;13.18;;;18.00;99.90;;;;;;5086349;28;20056;-77
2023/09/06 03:03:15;;;;;;;15.13;12.95;;;18.00;99.90;;;;;;5080957;28;20055;-76
2023/09/06 03:05:41;;;;;;;16.58;12.73;;;18.00;99.90;;;;;;5072474;28;20045;-77
2023/09/06 03:08:08;;;;;;;15.05;12.65;;;17.90;99.90;;;;;;5088663;28;20044;-77
2023/09/06 03:10:35;;;;;;;14.57;12.50;;;17.90;99.90;;;;;;5083581;28;20044;-77
2023/09/06 03:13:01;;;;;;;15.70;11.90;;;17.80;99.90;;;;;;5090303;28;20048;-76
2023/09/06 03:15:28;;;;;;;16.40;13.30;;;17.80;99.90;;;;;;5081673;28;20086;-77
2023/09/06 03:18:01;;;;;;;15.95;11.98;;;17.80;99.90;;;;;;5088573;28;20506;-76
2023/09/06 03:20:32;;;;;;;18.58;12.73;;;17.80;99.90;;;;;;5084278;28;20063;-76
2023/09/06 03:23:01;;;;;;;14.98;12.50;;;17.80;99.90;;;;;;5080225;28;20053;-77
2023/09/06 03:25:27;;;;;;;15.43;13.32;;;17.70;99.90;;;;;;5082586;28;20052;-77
2023/09/06 03:28:01;;;;;;;14.60;11.30;;;17.70;99.90;;;;;;5077574;28;20037;-77
2023/09/06 03:30:33;;;;;;;16.27;12.75;;;17.60;99.90;;;;;;5084259;28;20040;-76
2023/09/06 03:32:59;;;;;;;15.05;12.80;;;17.70;99.90;;;;;;5086041;28;20048;-77
2023/09/06 03:35:25;;;;;;;16.83;12.52;;;17.60;99.90;;;;;;5084508;28;20039;-77
2023/09/06 03:37:51;;;;;;;16.45;13.15;;;17.60;99.90;;;;;;5098812;28;20402;-76
2023/09/06 03:43:15;;;;;;;20.02;14.60;;;17.60;99.90;;;;;;5072780;28;20170;-77
2023/09/06 03:45:51;;;;;;;16.20;13.80;;;17.50;99.90;;;;;;5079317;28;20127;-77
2023/09/06 03:48:22;;;;;;;16.00;12.90;;;17.50;99.90;;;;;;5080720;28;20040;-77
2023/09/06 03:50:53;;;;;;;22.05;13.52;;;17.50;99.90;;;;;;5081670;28;20140;-77
2023/09/06 03:53:19;;;;;;;16.20;13.50;;;17.50;99.90;;;;;;5074370;28;20052;-77
2023/09/06 03:55:46;;;;;;;15.90;12.55;;;17.40;99.90;;;;;;5086994;28;20047;-76
2023/09/06 03:58:12;;;;;;;15.68;12.45;;;17.40;99.90;;;;;;5086866;28;20033;-78
2023/09/06 04:00:44;;;;;;;13.52;11.75;;;17.40;99.90;;;;;;5073661;28;20047;-77
2023/09/06 04:03:14;;;;;;;15.77;11.88;;;17.40;99.90;;;;;;5082305;28;20044;-77
2023/09/06 04:05:40;;;;;;;17.30;12.75;;;17.40;99.90;;;;;;5087112;28;20036;-77
2023/09/06 04:08:07;;;;;;;13.98;12.10;;;17.30;99.90;;;;;;5082159;28;20058;-77
2023/09/06 04:10:36;;;;;;;17.73;12.30;;;17.30;99.90;;;;;;5083723;28;20490;-77
2023/09/06 04:13:12;;;;;;;14.93;12.25;;;17.30;99.90;;;;;;5077134;28;20592;-77
2023/09/06 04:15:40;;;;;;;12.90;11.50;;;17.30;99.90;;;;;;5094489;28;20095;-77
2023/09/06 04:18:09;;;;;;;14.20;12.38;;;17.30;99.90;;;;;;5096486;28;20490;-77
2023/09/06 04:20:36;;;;;;;14.43;11.32;;;17.20;99.90;;;;;;5093180;28;20135;-76
2023/09/06 04:23:12;;;;;;;14.65;11.60;;;17.20;99.90;;;;;;5106387;28;20055;-77
2023/09/06 04:25:42;;;;;;;19.13;11.90;;;17.20;99.90;;;;;;5081008;28;20044;-76
2023/09/06 04:28:08;;;;;;;13.38;10.60;;;17.20;99.90;;;;;;5075823;28;20132;-77
2023/09/06 04:30:38;;;;;;;16.45;11.27;;;17.20;99.90;;;;;;5083759;28;20044;-76
2023/09/06 04:33:05;;;;;;;14.75;11.25;;;17.20;99.90;;;;;;5096410;28;20081;-76
2023/09/06 04:35:39;;;;;;;16.00;11.82;;;17.10;99.90;;;;;;5064502;28;20045;-76
2023/09/06 04:38:05;;;;;;;14.43;11.52;;;17.10;99.90;;;;;;5081781;28;20098;-77
2023/09/06 04:40:30;;;;;;;13.10;11.40;;;17.10;99.90;;;;;;5069298;28;20154;-76
2023/09/06 04:42:56;;;;;;;13.82;10.85;;;17.10;99.90;;;;;;5070650;28;20044;-77
2023/09/06 04:45:22;;;;;;;14.27;11.15;;;17.00;99.90;;;;;;5085530;28;20036;-77
2023/09/06 04:47:47;;;;;;;12.18;10.25;;;17.00;99.90;;;;;;5082945;28;20036;-76
2023/09/06 04:50:13;;;;;;;12.50;10.05;;;17.00;99.90;;;;;;5086797;28;20497;-76
2023/09/06 04:52:46;;;;;;;11.50;9.98;;;17.00;99.90;;;;;;5081568;28;20123;-76
2023/09/06 04:55:13;;;;;;;11.52;9.40;;;17.00;99.90;;;;;;5089030;28;20051;-76
2023/09/06 04:57:42;;;;;;;15.77;11.03;;;17.00;99.90;;;;;;5085948;28;20040;-76
2023/09/06 05:00:23;;;;;;;12.68;9.43;;;17.00;99.90;;;;;;5079560;28;20116;-76
2023/09/06 05:02:51;;;;;;;14.07;9.57;;;17.00;99.90;;;;;;5091182;28;20048;-77
2023/09/06 05:05:18;;;;;;;12.70;9.27;;;17.10;99.90;;;;;;5079163;28;20044;-76
2023/09/06 05:07:45;;;;;;;16.48;10.27;;;17.00;99.90;;;;;;5080656;28;20083;-76
2023/09/06 05:10:11;;;;;;;14.45;9.85;;;17.00;99.90;;;;;;5081103;28;20510;-77
2023/09/06 05:12:38;;;;;;;11.70;9.32;;;16.90;99.90;;;;;;5080850;28;20040;-77
2023/09/06 05:15:04;;;;;;;12.55;9.43;;;16.90;99.90;;;;;;5095743;28;20039;-77
2023/09/06 05:17:31;;;;;;;16.30;10.10;;;17.00;99.90;;;;;;5081316;28;20451;-77
2023/09/06 05:20:27;;;;;;;15.40;10.75;;;17.00;99.90;;;;;;5087036;28;20402;-76
2023/09/06 05:22:56;;;;;;;13.95;10.90;;;17.00;99.90;;;;;;5089219;28;20052;-76
2023/09/06 05:25:22;;;;;;;13.38;9.95;;;17.00;99.90;;;;;;5087444;28;20051;-77
2023/09/06 05:27:48;;;;;;;16.08;9.82;;;17.00;99.90;;;;;;5079667;28;20040;-76
2023/09/06 05:30:14;;;;;;;13.30;8.90;;;17.00;99.90;;;;;;5082629;28;20124;-76
2023/09/06 05:32:40;;;;;;;15.95;9.80;;;17.00;99.90;;;;;;5078451;28;20036;-76
2023/09/06 05:35:06;;;;;;;13.73;9.45;;;17.00;99.90;;;;;;5085940;28;20035;-76
2023/09/06 05:37:32;;;;;;;13.60;9.25;;;17.00;99.90;;;;;;5077326;28;20041;-77
2023/09/06 05:39:58;;;;;;;13.23;10.13;;;17.00;99.90;;;;;;5081449;28;20051;-76
2023/09/06 05:42:23;;;;;;;13.90;9.25;;;17.10;99.90;;;;;;5074043;28;20037;-76
2023/09/06 05:44:49;;;;;;;13.00;9.40;;;17.10;99.90;;;;;;5092041;28;20520;-75
2023/09/06 05:47:15;;;;;;;18.70;9.65;;;17.10;99.90;;;;;;5083723;28;20040;-76
2023/09/06 05:49:40;;;;;;;10.23;8.88;;;17.10;99.90;;;;;;5085598;28;20041;-75
2023/09/06 05:52:06;;;;;;;11.50;9.32;;;17.10;99.90;;;;;;5079023;28;20039;-75
2023/09/06 05:54:32;;;;;;;14.93;8.93;;;17.10;99.90;;;;;;5082767;28;20107;-76
2023/09/06 05:56:58;;;;;;;12.68;8.70;;;17.20;99.90;;;;;;5078542;28;20040;-75
2023/09/06 05:59:23;;;;;;;11.02;9.07;;;17.20;99.90;;;;;;5091448;28;20383;-77
2023/09/06 06:01:49;;;;;;;12.10;8.23;;;17.20;99.90;;;;;;5084261;28;20036;-75
2023/09/06 06:04:15;;;;;;;16.70;8.82;;;17.30;99.90;;;;;;5099570;28;20043;-75
2023/09/06 06:06:45;;;;;;;12.40;7.82;;;17.20;99.90;;;;;;5095395;28;20044;-76
2023/09/06 06:09:13;;;;;;;11.40;8.48;;;17.40;99.90;;;;;;5101796;28;20036;-75
2023/09/06 06:11:40;;;;;;;15.20;8.75;;;17.50;99.90;;;;;;5097133;28;20052;-76
2023/09/06 06:14:05;;;;;;;15.55;9.18;;;17.60;99.90;;;;;;5094309;28;20044;-77
2023/09/06 06:16:31;;;;;;;12.68;7.88;;;17.60;99.90;;;;;;5097124;28;20155;-76
2023/09/06 06:18:57;;;;;;;15.10;8.93;;;17.80;99.90;;;;;;5099648;28;20068;-76
2023/09/06 06:21:24;;;;;;;12.73;7.80;;;17.80;99.90;;;;;;5112650;28;20093;-76
2023/09/06 06:23:50;;;;;;;9.45;7.10;;;18.00;99.90;;;;;;5105381;28;20123;-77
2023/09/06 06:26:19;;;;;;;11.55;7.95;;;18.00;99.90;;;;;;5097700;28;20036;-76
2023/09/06 06:28:45;;;;;;;10.15;7.28;;;18.10;99.90;;;;;;5098994;28;20067;-77
2023/09/06 06:31:11;;;;;;;10.70;7.88;;;18.20;99.90;;;;;;5088206;28;20474;-77
2023/09/06 06:33:38;;;;;;;9.02;6.68;;;18.50;99.90;;;;;;5108821;28;20076;-77
2023/09/06 06:36:04;;;;;;;11.40;6.37;;;19.00;99.90;;;;;;5098485;28;20073;-76
2023/09/06 06:38:31;;;;;;;13.25;7.07;;;19.30;99.90;;;;;;5093237;28;20044;-76
2023/09/06 06:40:57;;;;;;;10.02;7.07;;;19.50;99.90;;;;;;5106222;28;20037;-75
2023/09/06 06:43:22;;;;;;;11.88;6.97;;;19.70;99.90;;;;;;5096285;28;20108;-76
2023/09/06 06:45:54;;;;;;;10.90;6.25;;;20.00;99.90;;;;;;5095906;28;20040;-76
2023/09/06 06:48:20;;;;;;;8.40;6.38;;;20.40;99.90;;;;;;5093311;28;20067;-76
2023/09/06 06:50:46;;;;;;;17.10;6.95;;;20.70;99.90;;;;;;5112781;28;20115;-75
2023/09/06 06:53:11;;;;;;;12.75;5.90;;;20.90;99.90;;;;;;5112693;28;20110;-75
2023/09/06 06:55:38;;;;;;;16.58;6.68;;;20.90;99.90;;;;;;5104463;28;20036;-76
2023/09/06 06:58:05;;;;;;;11.75;6.47;;;20.90;99.90;;;;;;5101810;28;20036;-75
2023/09/06 07:00:31;;;;;;;11.80;6.03;;;20.90;99.90;;;;;;5106283;28;20055;-76
2023/09/06 07:03:00;;;;;;;7.32;4.97;;;21.20;99.90;;;;;;5093154;28;20051;-76
2023/09/06 07:05:26;;;;;;;6.95;5.85;;;21.70;99.90;;;;;;5087180;28;20040;-76
2023/09/06 07:07:54;;;;;;;7.60;5.38;;;22.20;99.90;;;;;;5106051;28;20497;-77
2023/09/06 07:10:21;;;;;;;12.37;5.73;;;22.30;99.90;;;;;;5100145;28;20047;-78
2023/09/06 07:12:48;;;;;;;13.50;5.78;;;22.20;99.90;;;;;;5104898;28;20048;-76
2023/09/06 07:15:14;;;;;;;6.60;5.25;;;22.10;99.90;;;;;;5098257;28;20051;-77
2023/09/06 07:17:40;;;;;;;10.15;5.65;;;22.00;99.90;;;;;;5097710;28;20044;-76
2023/09/06 07:20:07;;;;;;;11.20;5.47;;;22.00;99.90;;;;;;5079579;28;20495;-75
2023/09/06 07:22:33;;;;;;;8.65;5.53;;;21.90;99.90;;;;;;5074990;28;20060;-77
2023/09/06 07:24:58;;;;;;;8.80;5.57;;;21.90;99.90;;;;;;5082422;28;20036;-76
2023/09/06 07:27:25;;;;;;;9.30;6.05;;;21.90;99.90;;;;;;5093296;28;20047;-76
2023/09/06 07:29:51;;;;;;;8.73;5.45;;;21.90;99.90;;;;;;5090693;28;20048;-76
2023/09/06 07:32:17;;;;;;;7.63;5.20;;;21.90;99.90;;;;;;5090775;28;20043;-76
2023/09/06 07:34:43;;;;;;;6.63;5.22;;;21.90;99.90;;;;;;5085848;28;20130;-75
2023/09/06 07:37:10;;;;;;;6.83;5.27;;;22.00;99.90;;;;;;5094950;28;20482;-76
2023/09/06 07:39:36;;;;;;;11.00;5.30;;;22.10;99.90;;;;;;5093210;28;20040;-76
2023/09/06 07:42:03;;;;;;;9.07;5.20;;;22.20;99.90;;;;;;5077546;28;20051;-76
2023/09/06 07:44:32;;;;;;;11.10;4.75;;;22.30;99.90;;;;;;5083221;28;20044;-76
2023/09/06 07:47:01;;;;;;;6.93;5.25;;;22.30;99.90;;;;;;5082144;28;20053;-76
2023/09/06 07:49:30;;;;;;;10.63;5.20;;;22.40;99.90;;;;;;5089769;28;20085;-77
2023/09/06 07:51:57;;;;;;;6.55;4.22;;;22.50;99.90;;;;;;5091188;28;20051;-76
2023/09/06 07:54:23;;;;;;;6.88;4.20;;;22.50;99.90;;;;;;5091181;28;20052;-76
2023/09/06 07:56:49;;;;;;;10.10;4.90;;;22.60;99.90;;;;;;5095655;28;20424;-76
2023/09/06 07:59:20;;;;;;;11.05;4.10;;;22.80;99.90;;;;;;5096410;28;20043;-76
2023/09/06 08:01:45;;;;;;;7.03;4.72;;;22.90;99.90;;;;;;5094591;28;20080;-76
2023/09/06 08:04:11;;;;;;;6.53;4.30;;;23.00;99.90;;;;;;5090442;28;20036;-75
2023/09/06 08:06:37;;;;;;;6.22;4.07;;;23.10;99.90;;;;;;5076470;28;20044;-75
2023/09/06 08:09:03;;;;;;;6.45;4.53;;;23.30;99.90;;;;;;5092682;28;20059;-75
2023/09/06 08:11:28;;;;;;;8.50;3.90;;;23.40;99.90;;;;;;5087965;28;20036;-76
2023/09/06 08:13:54;;;;;;;12.23;4.32;;;23.50;99.90;;;;;;5087444;28;20032;-76
2023/09/06 08:16:20;;;;;;;6.90;4.07;;;23.60;99.90;;;;;;5089857;28;20049;-76
2023/09/06 08:18:46;;;;;;;6.35;3.50;;;23.70;99.90;;;;;;5083473;28;20592;-74
2023/09/06 08:21:12;;;;;;;8.38;3.55;;;23.90;99.90;;;;;;5092658;28;20082;-75
2023/09/06 08:23:38;;;;;;;6.63;3.60;;;24.00;99.90;;;;;;5091504;28;20102;-76
2023/09/06 08:26:04;;;;;;;8.13;3.72;;;24.10;99.90;;;;;;5090644;28;20044;-75
2023/09/06 08:28:29;;;;;;;7.78;3.20;;;24.20;99.90;;;;;;5092419;28;20042;-76
2023/09/06 08:30:55;;;;;;;7.45;3.58;;;24.30;99.90;;;;;;5093700;28;20040;-75
2023/09/06 08:33:21;;;;;;;6.15;3.45;;;24.40;99.90;;;;;;5090600;28;20127;-75
2023/09/06 08:35:46;;;;;;;5.95;3.30;;;24.60;99.90;;;;;;5092865;28;20036;-75
2023/09/06 08:38:12;;;;;;;8.88;3.25;;;24.70;99.90;;;;;;5094714;28;20040;-76
2023/09/06 08:40:38;;;;;;;4.57;3.00;;;24.80;99.90;;;;;;5091382;28;20126;-75
2023/09/06 08:43:04;;;;;;;8.38;3.00;;;24.90;99.90;;;;;;5089272;28;20040;-76
2023/09/06 08:45:30;;;;;;;8.43;3.15;;;25.00;99.90;;;;;;5073036;28;20128;-75
2023/09/06 08:47:56;;;;;;;4.65;3.17;;;25.20;99.90;;;;;;5089920;28;20044;-76
2023/09/06 08:50:23;;;;;;;8.80;3.33;;;25.30;99.90;;;;;;5087279;28;20130;-75
2023/09/06 08:52:50;;;;;;;4.00;2.80;;;25.40;99.90;;;;;;5075085;28;20045;-75
2023/09/06 08:55:17;;;;;;;4.80;2.85;;;25.50;99.90;;;;;;5081222;28;20118;-75
2023/09/06 08:57:44;;;;;;;3.65;2.55;;;25.60;99.90;;;;;;5093104;28;20132;-74
2023/09/06 09:00:11;;;;;;;6.53;2.75;;;25.80;99.90;;;;;;5092513;28;20058;-76
2023/09/06 09:02:42;;;;;;;4.68;2.72;;;25.80;99.90;;;;;;5077467;28;20043;-75
2023/09/06 09:05:10;;;;;;;6.53;2.72;;;25.90;99.90;;;;;;5092843;28;20111;-75
2023/09/06 09:07:39;;;;;;;5.85;2.60;;;26.00;99.90;;;;;;5079650;28;20044;-75
2023/09/06 09:10:09;;;;;;;6.70;2.80;;;26.10;99.90;;;;;;5081543;28;20457;-76
2023/09/06 09:12:37;;;;;;;4.53;2.38;;;26.20;99.90;;;;;;5092436;28;20040;-75
2023/09/06 09:15:04;;;;;;;6.35;2.58;;;26.30;99.90;;;;;;5086669;28;20041;-76
2023/09/06 09:17:31;;;;;;;4.50;3.00;;;26.40;99.90;;;;;;5078304;28;20048;-76
2023/09/06 09:20:00;;;;;;;8.18;3.00;;;26.60;99.90;;;;;;5086615;28;20047;-76
2023/09/06 09:22:31;;;;;;;4.18;2.30;;;26.70;99.90;;;;;;5086515;28;20056;-76
2023/09/06 09:25:14;;;;;;;6.03;2.40;;;26.80;99.90;;;;;;5112368;27;20126;-76
2023/09/06 09:27:44;;;;;;;8.70;2.70;;;26.90;99.90;;;;;;5083230;28;20044;-76
2023/09/06 09:30:12;;;;;;;8.77;2.85;;;27.00;99.90;;;;;;5074205;28;20109;-76
2023/09/06 09:32:39;;;;;;;6.25;2.50;;;27.10;99.90;;;;;;5108510;27;20044;-76
2023/09/06 09:35:11;;;;;;;5.47;2.60;;;27.20;99.90;;;;;;5079094;28;20437;-75
2023/09/06 09:37:42;;;;;;;6.15;2.30;;;27.30;99.90;;;;;;5094903;28;20131;-75
2023/09/06 09:40:21;;;;;;;4.20;2.58;;;27.40;99.90;;;;;;5086771;28;20036;-76
2023/09/06 09:42:59;;;;;;;6.15;2.38;;;27.50;99.90;;;;;;5092441;28;20498;-76
2023/09/06 09:45:28;;;;;;;6.30;2.53;;;27.60;99.90;;;;;;5109482;28;20040;-74
2023/09/06 09:47:57;;;;;;;6.07;2.50;;;27.80;99.90;;;;;;5087246;28;20059;-75
2023/09/06 09:50:26;;;;;;;4.35;2.42;;;27.90;99.90;;;;;;5069206;28;20044;-75
2023/09/06 09:52:54;;;;;;;5.43;2.63;;;28.00;99.90;;;;;;5089901;28;20036;-75
2023/09/06 09:55:25;;;;;;;7.10;2.50;;;28.10;99.90;;;;;;5092842;28;20374;-76
2023/09/06 09:57:52;;;;;;;5.22;2.70;;;28.30;99.90;;;;;;5092767;28;20440;-75
2023/09/06 10:00:27;;;;;;;5.30;2.58;;;28.40;99.90;;;;;;5076632;28;20040;-76
2023/09/06 10:02:56;;;;;;;6.38;2.95;;;28.50;99.90;;;;;;5083891;28;20150;-75
2023/09/06 10:05:23;;;;;;;6.07;2.20;;;28.70;99.90;;;;;;5087722;28;20139;-74
2023/09/06 10:07:49;;;;;;;5.32;2.40;;;28.90;99.90;;;;;;5074039;28;20055;-76
2023/09/06 10:10:15;;;;;;;5.65;2.45;;;28.90;99.90;;;;;;5085439;28;20036;-74
2023/09/06 10:12:44;;;;;;;10.82;3.05;;;29.10;99.90;;;;;;5092858;28;20047;-75
2023/09/06 10:15:15;;;;;;;6.15;2.50;;;29.20;99.30;;;;;;5081405;28;20048;-74
2023/09/06 10:17:42;;;;;;;3.50;2.15;;;29.30;99.40;;;;;;5077520;28;20041;-75
2023/09/06 10:20:15;;;;;;;4.47;2.67;;;29.50;98.60;;;;;;5088047;28;20070;-75
2023/09/06 10:22:46;;;;;;;7.70;2.63;;;29.60;97.90;;;;;;5072778;28;20052;-76
2023/09/06 10:25:14;;;;;;;6.97;2.40;;;29.70;98.60;;;;;;5054344;28;20457;-76
2023/09/06 10:27:51;;;;;;;4.28;2.20;;;29.90;97.70;;;;;;5091852;28;20040;-77
2023/09/06 10:30:34;;;;;;;8.57;2.15;;;30.00;96.40;;;;;;5093637;28;20044;-77
2023/09/06 10:33:02;;;;;;;5.63;2.42;;;30.10;97.00;;;;;;5077076;28;20052;-75
2023/09/06 10:35:31;;;;;;;5.72;2.72;;;30.10;95.50;;;;;;5087051;28;20386;-77
2023/09/06 10:38:05;;;;;;;16.02;3.65;;;30.20;95.00;;;;;;5093798;28;20044;-76
2023/09/06 10:40:49;;;;;;;4.43;2.10;;;30.40;93.50;;;;;;5084293;28;20394;-75
2023/09/06 10:43:16;;;;;;;4.30;2.30;;;30.60;93.10;;;;;;5075397;28;20044;-77
2023/09/06 10:45:57;;;;;;;4.22;2.13;;;30.60;93.00;;;;;;5096727;28;20436;-76
2023/09/06 10:48:23;;;;;;;5.03;2.17;;;30.80;92.80;;;;;;5081279;28;20044;-75
2023/09/06 10:51:09;;;;;;;4.43;2.00;;;30.90;92.60;;;;;;5081449;28;20051;-76
2023/09/06 10:53:37;;;;;;;4.20;2.05;;;30.90;91.70;;;;;;5115023;27;20045;-77
2023/09/06 10:56:05;;;;;;;7.18;2.30;;;31.20;91.70;;;;;;5076159;28;20040;-79
2023/09/06 10:58:33;;;;;;;3.63;1.95;;;31.20;91.40;;;;;;5079941;28;20044;-76
2023/09/06 11:01:18;;;;;;;3.50;2.03;;;31.20;90.70;;;;;;5084378;28;20086;-77
2023/09/06 11:03:50;;;;;;;8.63;1.98;;;31.30;89.00;;;;;;5090132;28;20037;-76
2023/09/06 11:06:15;;;;;;;7.03;2.35;;;31.40;90.60;;;;;;5078487;28;20040;-76
2023/09/06 11:08:41;;;;;;;4.60;2.10;;;31.60;90.60;;;;;;5077237;28;20044;-77
2023/09/06 11:11:09;;;;;;;8.30;2.00;;;31.60;89.60;;;;;;5083566;27;20379;-76
2023/09/06 11:13:36;;;;;;;4.78;2.25;;;31.80;89.90;;;;;;5086047;28;20486;-75
2023/09/06 11:16:15;;;;;;;6.88;3.03;;;32.00;89.10;;;;;;5087451;28;20039;-75
2023/09/06 11:18:46;;;;;;;5.40;2.20;;;32.10;85.50;;;;;;5087558;28;20044;-76
2023/09/06 11:21:25;;;;;;;4.68;2.13;;;32.20;84.70;;;;;;5093839;28;20393;-75
2023/09/06 11:23:52;;;;;;;3.78;2.10;;;32.10;84.60;;;;;;5091616;28;20056;-75
2023/09/06 11:26:19;;;;;;;4.78;2.20;;;32.10;84.10;;;;;;5075882;28;20049;-74
2023/09/06 11:28:47;;;;;;;;;;;32.20;84.10;;;;;;5076282;28;20475;-75
2023/09/06 11:31:29;;;;;;;5.65;2.05;;;32.40;83.40;;;;;;5075677;28;20305;-76
2023/09/06 11:34:03;;;;;;;6.80;2.40;;;32.40;82.10;;;;;;5082390;28;20127;-76
2023/09/06 11:36:32;;;;;;;5.82;2.15;;;32.70;82.50;;;;;;5088073;28;20478;-75
2023/09/06 11:39:22;;;;;;;5.60;2.20;;;32.70;81.60;;;;;;5081594;28;20047;-75
2023/09/06 11:41:48;;;;;;;4.75;2.28;;;32.80;82.10;;;;;;5087454;28;20048;-77
2023/09/06 11:44:17;;;;;;;6.20;2.55;;;32.80;81.60;;;;;;5091006;28;20472;-76
2023/09/06 11:46:43;;;;;;;4.95;1.95;;;32.80;80.90;;;;;;5069510;28;20502;-76
2023/09/06 11:49:14;;;;;;;4.57;2.40;;;32.80;80.40;;;;;;5085534;28;20097;-75
2023/09/06 11:51:41;;;;;;;3.78;2.00;;;32.80;80.20;;;;;;5092386;28;20083;-75
2023/09/06 11:54:09;;;;;;;6.50;2.20;;;32.80;79.50;;;;;;5080241;28;20048;-76
2023/09/06 11:56:39;;;;;;;5.80;2.30;;;32.90;81.00;;;;;;5086714;28;20059;-75
2023/09/06 11:59:06;;;;;;;3.88;2.03;;;33.00;80.40;;;;;;5091248;28;20040;-75
2023/09/06 12:01:43;;;;;;;3.63;2.25;;;33.00;81.00;;;;;;5096836;28;20036;-75
2023/09/06 12:04:16;;;;;;;5.97;2.88;;;33.10;80.00;;;;;;5089631;28;20044;-75
2023/09/06 12:06:42;;;;;;;4.13;2.20;;;33.20;80.50;;;;;;5087713;28;20051;-76
2023/09/06 12:09:15;;;;;;;4.38;2.35;;;33.30;79.70;;;;;;5091708;28;20040;-76
2023/09/06 12:11:41;;;;;;;5.78;2.83;;;33.40;78.60;;;;;;5083318;28;20082;-75
2023/09/06 12:14:11;;;;;;;6.00;2.17;;;33.50;78.20;;;;;;5088708;28;20073;-77
2023/09/06 12:16:38;;;;;;;8.85;2.08;;;33.50;77.90;;;;;;5075265;28;20079;-77
2023/09/06 12:19:04;;;;;;;3.28;2.03;;;33.40;77.10;;;;;;5089591;28;20047;-74
2023/09/06 12:21:30;;;;;;;3.80;1.90;;;33.60;78.30;;;;;;5075915;28;20509;-78
2023/09/06 12:23:58;;;;;;;3.77;1.90;;;33.60;75.90;;;;;;5090552;28;20032;-75
2023/09/06 12:26:23;;;;;;;3.70;1.83;;;33.80;75.20;;;;;;5091454;28;20036;-75
2023/09/06 12:28:50;;;;;;;6.63;2.03;;;33.90;75.80;;;;;;5095341;28;20194;-76
2023/09/06 12:31:15;;;;;;;3.47;2.08;;;34.00;75.30;;;;;;5082993;28;20059;-76
2023/09/06 12:33:43;;;;;;;3.60;2.00;;;34.20;76.50;;;;;;5115298;27;20040;-75
2023/09/06 12:36:10;;;;;;;4.97;1.90;;;34.30;74.70;;;;;;5093186;28;20078;-75
2023/09/06 12:38:36;;;;;;;3.75;1.95;;;34.40;74.60;;;;;;5086331;28;20049;-76
2023/09/06 12:41:04;;;;;;;3.10;2.00;;;34.50;74.50;;;;;;5086645;28;20046;-76
2023/09/06 12:43:34;;;;;;;5.78;1.67;;;34.30;74.50;;;;;;5081208;28;20045;-77
2023/09/06 12:46:00;;;;;;;8.95;2.20;;;34.30;73.70;;;;;;5073897;28;20525;-74